Time;durP1;ratioP1;P1;durP2;ratioP2;P2;SDS_P1;SDS_P2;PMS_P1;PMS_P2;Temp;Humidity;BMP_temperature;BMP_pressure;BME280_temperature;BME280_humidity;BME280_pressure;Samples;Min_cycle;Max_cycle;Signal;HPM_P1;HPM_P2
2023/10/30 00:02:13;;;;;;;3.40;3.20;;;12.90;99.90;;;;;;5075007;28;20179;-79
2023/10/30 00:04:38;;;;;;;5.00;3.37;;;12.80;99.90;;;;;;5076185;28;20171;-81
2023/10/30 00:07:04;;;;;;;4.00;3.30;;;12.80;99.90;;;;;;5077219;28;20200;-81
2023/10/30 00:09:30;;;;;;;3.50;3.20;;;12.80;99.90;;;;;;5076879;28;20253;-79
2023/10/30 00:11:55;;;;;;;4.03;3.63;;;12.80;99.90;;;;;;5076356;28;20659;-81
2023/10/30 00:14:21;;;;;;;3.57;3.17;;;12.70;99.90;;;;;;5076063;28;20187;-78
2023/10/30 00:16:47;;;;;;;4.33;3.33;;;12.70;99.90;;;;;;5077207;28;20638;-79
2023/10/30 00:19:13;;;;;;;3.93;3.53;;;12.70;99.90;;;;;;5077379;28;20178;-80
2023/10/30 00:21:40;;;;;;;3.60;3.30;;;12.70;99.90;;;;;;5074477;28;20182;-79
2023/10/30 00:24:06;;;;;;;4.87;3.23;;;12.60;99.90;;;;;;5076195;28;20183;-80
2023/10/30 00:26:31;;;;;;;4.47;3.70;;;12.60;99.90;;;;;;5076298;28;20596;-80
2023/10/30 00:28:57;;;;;;;3.20;2.87;;;12.50;99.90;;;;;;5078155;28;20182;-81
2023/10/30 00:31:23;;;;;;;4.43;2.97;;;12.50;99.90;;;;;;5075975;28;20171;-80
2023/10/30 00:33:49;;;;;;;4.93;3.50;;;12.50;99.90;;;;;;5080515;28;20187;-80
2023/10/30 00:36:15;;;;;;;3.93;3.30;;;12.40;99.90;;;;;;5077335;28;21032;-79
2023/10/30 00:38:41;;;;;;;3.23;3.03;;;12.40;99.90;;;;;;5077136;28;20270;-80
2023/10/30 00:41:10;;;;;;;4.60;3.10;;;12.30;99.90;;;;;;5078902;28;21050;-80
2023/10/30 00:43:37;;;;;;;5.17;3.30;;;12.40;99.90;;;;;;5075813;28;20171;-79
2023/10/30 00:46:06;;;;;;;4.50;2.97;;;12.40;99.90;;;;;;5075528;28;20172;-80
2023/10/30 00:48:35;;;;;;;3.63;3.30;;;12.40;99.90;;;;;;5074156;28;20604;-79
2023/10/30 00:51:00;;;;;;;3.10;2.87;;;12.40;99.90;;;;;;5074586;28;20186;-79
2023/10/30 00:53:26;;;;;;;2.97;2.77;;;12.50;99.90;;;;;;5074724;28;20220;-79
2023/10/30 00:55:52;;;;;;;3.90;2.73;;;12.40;99.90;;;;;;5075926;28;20171;-81
2023/10/30 00:58:18;;;;;;;3.33;2.50;;;12.40;99.90;;;;;;5076380;28;20198;-80
2023/10/30 01:00:43;;;;;;;3.10;2.80;;;12.40;99.90;;;;;;5075936;28;20227;-79
2023/10/30 01:03:09;;;;;;;2.50;2.30;;;12.50;99.90;;;;;;5077056;28;20178;-80
2023/10/30 01:05:35;;;;;;;2.47;2.37;;;12.50;99.90;;;;;;5076626;28;20666;-80
2023/10/30 01:08:01;;;;;;;4.73;2.70;;;12.50;99.90;;;;;;5074984;28;20179;-80
2023/10/30 01:10:27;;;;;;;4.10;2.10;;;12.50;99.90;;;;;;5078545;28;20188;-80
2023/10/30 01:12:52;;;;;;;5.40;2.60;;;12.60;99.90;;;;;;5076975;28;20221;-80
2023/10/30 01:15:20;;;;;;;2.73;2.23;;;12.60;99.90;;;;;;5075552;28;20180;-80
2023/10/30 01:17:45;;;;;;;2.57;2.37;;;12.50;99.90;;;;;;5074467;28;20707;-80
2023/10/30 01:20:12;;;;;;;2.20;2.07;;;12.50;99.90;;;;;;5076557;28;20183;-81
2023/10/30 01:22:37;;;;;;;2.97;2.30;;;12.60;99.90;;;;;;5075474;28;20182;-79
2023/10/30 01:25:03;;;;;;;3.43;2.30;;;12.60;99.90;;;;;;5075135;28;20635;-81
2023/10/30 01:27:29;;;;;;;3.40;2.00;;;12.60;99.90;;;;;;5074633;28;20277;-83
2023/10/30 01:29:55;;;;;;;2.10;1.90;;;12.70;99.90;;;;;;5074923;28;20266;-81
2023/10/30 01:32:20;;;;;;;2.80;2.10;;;12.70;99.90;;;;;;5074723;28;20683;-79
2023/10/30 01:34:46;;;;;;;1.90;1.80;;;12.80;99.90;;;;;;5075234;28;20174;-79
2023/10/30 01:37:12;;;;;;;1.97;1.87;;;12.80;99.90;;;;;;5075863;28;20232;-82
2023/10/30 01:39:39;;;;;;;2.00;1.90;;;12.90;99.90;;;;;;5075382;28;20163;-80
2023/10/30 01:42:05;;;;;;;2.00;1.90;;;12.90;99.90;;;;;;5075582;28;20175;-80
2023/10/30 01:44:30;;;;;;;5.27;1.90;;;12.90;99.90;;;;;;5075591;28;20159;-80
2023/10/30 01:46:56;;;;;;;1.83;1.73;;;13.00;99.90;;;;;;5075914;28;20178;-81
2023/10/30 01:49:22;;;;;;;2.40;1.93;;;12.90;99.90;;;;;;5076136;28;20266;-79
2023/10/30 01:51:48;;;;;;;1.83;1.73;;;12.90;99.90;;;;;;5077543;28;20294;-80
2023/10/30 01:54:14;;;;;;;2.40;2.17;;;12.90;99.90;;;;;;5074310;28;20218;-81
2023/10/30 01:56:40;;;;;;;2.27;2.00;;;13.00;99.90;;;;;;5075252;28;20171;-81
2023/10/30 01:59:07;;;;;;;2.00;1.90;;;12.90;99.90;;;;;;5074623;28;20180;-82
2023/10/30 02:01:38;;;;;;;1.80;1.70;;;13.00;99.90;;;;;;5078429;28;20536;-80
2023/10/30 02:04:05;;;;;;;2.83;2.03;;;12.90;99.90;;;;;;5082656;28;20164;-79
2023/10/30 02:06:31;;;;;;;2.43;1.83;;;12.90;99.90;;;;;;5078277;28;20203;-80
2023/10/30 02:08:57;;;;;;;3.70;1.90;;;12.90;99.90;;;;;;5078214;28;20174;-80
2023/10/30 02:11:22;;;;;;;2.83;2.30;;;12.80;99.90;;;;;;5074838;28;20175;-77
2023/10/30 02:13:55;;;;;;;3.07;2.10;;;12.70;99.90;;;;;;5073065;28;20270;-81
2023/10/30 02:16:21;;;;;;;3.03;1.93;;;12.70;99.90;;;;;;5074424;28;20186;-79
2023/10/30 02:18:47;;;;;;;2.23;2.13;;;12.70;99.90;;;;;;5074719;28;20171;-80
2023/10/30 02:21:13;;;;;;;2.13;2.00;;;12.60;99.90;;;;;;5074735;28;20178;-79
2023/10/30 02:23:39;;;;;;;2.27;2.10;;;12.60;99.90;;;;;;5073176;28;20188;-80
2023/10/30 02:26:04;;;;;;;2.10;2.00;;;12.50;99.90;;;;;;5074220;28;20766;-81
2023/10/30 02:28:30;;;;;;;2.83;2.10;;;12.40;99.90;;;;;;5074277;28;20179;-79
2023/10/30 02:30:56;;;;;;;4.97;2.20;;;12.30;99.90;;;;;;5082767;28;20185;-79
2023/10/30 02:33:21;;;;;;;2.60;2.10;;;12.30;99.90;;;;;;5075123;28;20218;-81
2023/10/30 02:35:47;;;;;;;2.70;2.07;;;12.20;99.90;;;;;;5073885;28;20182;-81
2023/10/30 02:38:14;;;;;;;3.23;2.17;;;12.10;99.90;;;;;;5073117;28;20223;-79
2023/10/30 02:40:40;;;;;;;2.40;2.30;;;12.10;99.90;;;;;;5091049;28;20205;-78
2023/10/30 02:43:07;;;;;;;1.93;1.83;;;12.30;99.90;;;;;;5076404;28;20252;-79
2023/10/30 02:45:33;;;;;;;2.30;2.10;;;12.10;99.90;;;;;;5077276;28;20201;-78
2023/10/30 02:47:58;;;;;;;2.20;2.00;;;12.10;99.90;;;;;;5074460;28;20222;-80
2023/10/30 02:50:24;;;;;;;2.33;2.03;;;12.10;99.90;;;;;;5074698;28;20200;-81
2023/10/30 02:52:50;;;;;;;2.00;1.90;;;12.10;99.90;;;;;;5074962;28;20203;-80
2023/10/30 02:55:16;;;;;;;1.97;1.87;;;12.00;99.90;;;;;;5073852;28;20171;-80
2023/10/30 02:57:41;;;;;;;2.97;1.90;;;11.90;99.90;;;;;;5073325;28;20361;-81
2023/10/30 03:00:07;;;;;;;2.17;2.00;;;12.00;99.90;;;;;;5075793;28;20177;-81
2023/10/30 03:02:33;;;;;;;2.17;2.07;;;12.00;99.90;;;;;;5074522;28;20185;-79
2023/10/30 03:04:59;;;;;;;2.17;2.03;;;11.90;99.90;;;;;;5074464;28;20631;-80
2023/10/30 03:07:24;;;;;;;1.80;1.70;;;12.00;99.90;;;;;;5072393;28;20184;-80
2023/10/30 03:09:50;;;;;;;2.67;2.00;;;12.00;99.90;;;;;;5072651;28;20211;-79
2023/10/30 03:12:16;;;;;;;2.13;2.03;;;12.00;99.90;;;;;;5074531;28;20204;-79
2023/10/30 03:14:41;;;;;;;2.10;1.90;;;12.00;99.90;;;;;;5080793;28;20194;-80
2023/10/30 03:17:07;;;;;;;2.53;2.07;;;12.00;99.90;;;;;;5072526;28;20205;-79
2023/10/30 03:19:33;;;;;;;1.80;1.70;;;12.00;99.90;;;;;;5074370;28;20228;-80
2023/10/30 03:21:59;;;;;;;4.30;2.03;;;12.00;99.90;;;;;;5075911;28;20163;-79
2023/10/30 03:24:24;;;;;;;2.07;1.93;;;11.90;99.90;;;;;;5073797;28;20198;-81
2023/10/30 03:26:51;;;;;;;2.97;2.00;;;11.80;99.90;;;;;;5073530;28;20219;-80
2023/10/30 03:29:17;;;;;;;2.00;1.90;;;11.80;99.90;;;;;;5072728;28;20205;-79
2023/10/30 03:31:42;;;;;;;2.00;1.90;;;11.70;99.90;;;;;;5073134;28;20200;-79
2023/10/30 03:34:08;;;;;;;2.10;1.83;;;11.80;99.90;;;;;;5073378;28;20534;-79
2023/10/30 03:36:34;;;;;;;2.10;2.00;;;11.70;99.90;;;;;;5076731;28;20173;-81
2023/10/30 03:39:00;;;;;;;2.00;1.90;;;11.60;99.90;;;;;;5078800;28;20216;-79
2023/10/30 03:41:26;;;;;;;2.13;1.93;;;11.70;99.90;;;;;;5072350;28;20190;-80
2023/10/30 03:43:52;;;;;;;2.23;1.80;;;11.70;99.90;;;;;;5073300;28;20293;-80
2023/10/30 03:46:17;;;;;;;2.53;2.07;;;11.70;99.90;;;;;;5073134;28;20185;-79
2023/10/30 03:48:43;;;;;;;2.10;2.00;;;11.70;99.90;;;;;;5078527;28;20179;-81
2023/10/30 03:51:09;;;;;;;2.30;2.20;;;11.70;99.90;;;;;;5083622;28;20534;-79
2023/10/30 03:53:35;;;;;;;2.60;1.80;;;11.80;99.90;;;;;;5071328;28;20547;-79
2023/10/30 03:56:06;;;;;;;4.00;1.73;;;11.70;99.90;;;;;;5073185;28;20178;-79
2023/10/30 03:58:31;;;;;;;2.93;1.80;;;11.70;99.90;;;;;;5072685;28;20181;-80
2023/10/30 04:01:04;;;;;;;1.90;1.73;;;11.80;99.90;;;;;;5071964;28;20264;-79
2023/10/30 04:03:30;;;;;;;2.07;1.97;;;11.80;99.90;;;;;;5073777;28;20216;-80
2023/10/30 04:06:01;;;;;;;2.43;1.93;;;11.70;99.90;;;;;;5072508;28;20164;-79
2023/10/30 04:08:27;;;;;;;2.60;2.13;;;11.70;99.90;;;;;;5072321;28;20619;-79
2023/10/30 04:10:53;;;;;;;2.13;1.97;;;11.70;99.90;;;;;;5072988;28;20175;-81
2023/10/30 04:13:18;;;;;;;1.70;1.60;;;11.70;99.90;;;;;;5072878;28;20388;-80
2023/10/30 04:15:45;;;;;;;2.67;1.80;;;11.70;99.90;;;;;;5072984;28;20263;-79
2023/10/30 04:18:11;;;;;;;1.77;1.67;;;11.70;99.90;;;;;;5075520;28;20193;-79
2023/10/30 04:20:37;;;;;;;2.17;1.77;;;11.70;99.90;;;;;;5080660;28;20206;-79
2023/10/30 04:23:02;;;;;;;1.93;1.70;;;11.70;99.90;;;;;;5074400;28;20211;-80
2023/10/30 04:25:28;;;;;;;2.20;2.00;;;11.80;99.90;;;;;;5071791;28;20713;-80
2023/10/30 04:27:54;;;;;;;3.00;2.10;;;11.80;99.90;;;;;;5071752;28;20184;-79
2023/10/30 04:30:20;;;;;;;3.30;1.90;;;11.80;99.90;;;;;;5072494;28;20284;-80
2023/10/30 04:32:45;;;;;;;2.47;1.97;;;11.80;99.90;;;;;;5072623;28;20352;-80
2023/10/30 04:35:11;;;;;;;2.30;2.10;;;11.80;99.90;;;;;;5072329;28;20665;-81
2023/10/30 04:37:37;;;;;;;2.10;2.00;;;11.80;99.90;;;;;;5072896;28;20226;-81
2023/10/30 04:40:04;;;;;;;2.30;2.10;;;11.80;99.90;;;;;;5072748;28;20257;-79
2023/10/30 04:42:30;;;;;;;2.00;1.90;;;11.80;99.90;;;;;;5072626;28;20172;-79
2023/10/30 04:44:56;;;;;;;2.83;2.20;;;11.80;99.90;;;;;;5074067;28;20173;-79
2023/10/30 04:47:22;;;;;;;2.27;2.07;;;11.80;99.90;;;;;;5073135;28;20191;-79
2023/10/30 04:49:49;;;;;;;4.50;2.00;;;11.70;99.90;;;;;;5072665;28;20182;-80
2023/10/30 04:52:15;;;;;;;3.23;1.93;;;11.80;99.90;;;;;;5074598;28;20352;-78
2023/10/30 04:54:41;;;;;;;2.10;1.93;;;11.80;99.90;;;;;;5076456;28;20263;-83
2023/10/30 04:57:06;;;;;;;2.27;2.13;;;11.70;99.90;;;;;;5078967;28;20267;-82
2023/10/30 04:59:33;;;;;;;2.60;2.07;;;11.80;99.90;;;;;;5080217;28;20167;-80
2023/10/30 05:02:01;;;;;;;6.40;2.20;;;11.70;99.90;;;;;;5092968;28;20188;-79
2023/10/30 05:04:27;;;;;;;3.03;2.00;;;11.70;99.90;;;;;;5081960;28;20171;-79
2023/10/30 05:06:53;;;;;;;3.33;1.90;;;11.60;99.90;;;;;;5077844;28;20179;-78
2023/10/30 05:09:18;;;;;;;1.93;1.90;;;11.60;99.90;;;;;;5090449;28;20177;-80
2023/10/30 05:11:44;;;;;;;2.50;2.00;;;11.50;99.90;;;;;;5079818;28;20187;-81
2023/10/30 05:14:10;;;;;;;2.03;1.83;;;11.60;99.90;;;;;;5098668;28;20182;-80
2023/10/30 05:16:35;;;;;;;2.57;2.00;;;11.60;99.90;;;;;;5084146;28;20209;-80
2023/10/30 05:19:01;;;;;;;2.23;1.93;;;11.60;99.90;;;;;;5074915;28;20244;-80
2023/10/30 05:21:27;;;;;;;5.30;2.00;;;11.60;99.90;;;;;;5077165;28;20601;-80
2023/10/30 05:23:52;;;;;;;2.00;1.90;;;11.50;99.90;;;;;;5088244;28;20175;-79
2023/10/30 05:26:18;;;;;;;2.10;1.90;;;11.50;99.90;;;;;;5075902;28;20226;-79
2023/10/30 05:28:44;;;;;;;2.47;2.03;;;11.60;99.90;;;;;;5075813;28;20175;-80
2023/10/30 05:31:10;;;;;;;2.57;2.00;;;11.60;99.90;;;;;;5075820;28;20172;-82
2023/10/30 05:33:35;;;;;;;2.73;2.00;;;11.60;99.90;;;;;;5075776;28;20203;-81
2023/10/30 05:36:03;;;;;;;2.97;2.13;;;11.60;99.90;;;;;;5075158;28;20179;-81
2023/10/30 05:38:28;;;;;;;3.07;2.17;;;12.10;99.90;;;;;;5075866;28;20543;-80
2023/10/30 05:40:54;;;;;;;2.03;1.80;;;11.60;99.90;;;;;;5075011;28;20640;-80
2023/10/30 05:43:20;;;;;;;2.70;2.50;;;11.60;99.90;;;;;;5076106;28;20181;-80
2023/10/30 05:45:47;;;;;;;1.93;1.80;;;11.60;99.90;;;;;;5077110;28;20175;-80
2023/10/30 05:48:13;;;;;;;4.53;2.27;;;11.70;99.90;;;;;;5076426;28;20192;-78
2023/10/30 05:50:39;;;;;;;3.90;1.90;;;11.70;99.90;;;;;;5077766;28;20627;-80
2023/10/30 05:53:05;;;;;;;3.03;2.00;;;11.70;99.90;;;;;;5075902;28;20260;-79
2023/10/30 05:55:30;;;;;;;2.10;2.00;;;11.70;99.90;;;;;;5077220;28;20219;-81
2023/10/30 05:57:56;;;;;;;2.97;2.27;;;11.70;99.90;;;;;;5075801;28;20198;-80
2023/10/30 06:00:23;;;;;;;2.30;2.10;;;11.60;99.90;;;;;;5075183;28;20181;-77
2023/10/30 06:02:49;;;;;;;3.10;2.10;;;11.70;99.90;;;;;;5074344;28;20237;-79
2023/10/30 06:05:16;;;;;;;2.40;2.20;;;11.70;99.90;;;;;;5074473;28;20179;-80
2023/10/30 06:07:42;;;;;;;3.17;2.23;;;11.70;99.90;;;;;;5075749;28;20671;-79
2023/10/30 06:10:10;;;;;;;3.27;2.30;;;11.70;99.90;;;;;;5075408;28;20167;-78
2023/10/30 06:12:38;;;;;;;2.83;2.63;;;11.80;99.90;;;;;;5074889;28;20201;-80
2023/10/30 06:15:04;;;;;;;1.93;1.87;;;11.80;99.90;;;;;;5075083;28;20181;-80
2023/10/30 06:17:30;;;;;;;3.13;2.30;;;11.90;99.90;;;;;;5074567;28;20174;-81
2023/10/30 06:19:56;;;;;;;2.43;2.13;;;11.80;99.90;;;;;;5072687;28;20233;-79
2023/10/30 06:22:21;;;;;;;4.90;2.70;;;11.90;99.90;;;;;;5073666;28;20216;-81
2023/10/30 06:24:47;;;;;;;3.10;2.73;;;11.90;99.90;;;;;;5073815;28;20258;-80
2023/10/30 06:27:13;;;;;;;2.60;2.47;;;11.90;99.90;;;;;;5077497;28;20237;-79
2023/10/30 06:29:39;;;;;;;2.50;2.30;;;11.90;99.90;;;;;;5091670;28;20180;-82
2023/10/30 06:32:06;;;;;;;3.30;2.70;;;12.00;99.90;;;;;;5078624;28;20207;-79
2023/10/30 06:34:38;;;;;;;3.00;2.80;;;11.90;99.90;;;;;;5074894;28;20246;-80
2023/10/30 06:37:04;;;;;;;7.50;4.07;;;11.90;99.90;;;;;;5073776;28;20204;-79
2023/10/30 06:39:29;;;;;;;4.73;2.80;;;11.90;99.90;;;;;;5072243;28;20189;-80
2023/10/30 06:41:56;;;;;;;2.73;2.33;;;12.00;99.90;;;;;;5074987;28;20183;-82
2023/10/30 06:44:25;;;;;;;7.07;2.87;;;12.00;99.90;;;;;;5076294;28;20215;-82
2023/10/30 06:46:51;;;;;;;4.77;3.10;;;12.00;99.90;;;;;;5074912;28;20673;-79
2023/10/30 06:49:18;;;;;;;5.23;2.77;;;12.00;99.90;;;;;;5086520;28;20179;-79
2023/10/30 06:51:44;;;;;;;6.37;3.40;;;12.00;99.90;;;;;;5081446;28;20174;-79
2023/10/30 06:54:13;;;;;;;3.30;2.60;;;12.00;99.90;;;;;;5081551;28;20196;-83
2023/10/30 06:56:39;;;;;;;6.47;2.60;;;12.00;99.90;;;;;;5078220;28;20186;-83
2023/10/30 06:59:06;;;;;;;3.20;2.67;;;12.10;99.90;;;;;;5091963;28;20232;-83
2023/10/30 07:01:43;;;;;;;3.43;2.80;;;12.10;99.90;;;;;;5081638;28;20167;-85
2023/10/30 07:04:11;;;;;;;8.87;3.67;;;12.10;99.90;;;;;;5076433;28;20186;-85
2023/10/30 07:06:38;;;;;;;3.53;2.93;;;12.10;99.90;;;;;;5076309;28;20526;-81
2023/10/30 07:09:07;;;;;;;2.90;2.60;;;12.20;99.90;;;;;;5074468;28;20171;-84
2023/10/30 07:11:34;;;;;;;9.10;3.37;;;12.20;99.90;;;;;;5074983;28;20171;-83
2023/10/30 07:14:04;;;;;;;3.77;3.00;;;12.30;99.90;;;;;;5075230;28;20171;-84
2023/10/30 07:16:30;;;;;;;3.90;2.77;;;12.30;99.90;;;;;;5075332;28;20202;-84
2023/10/30 07:18:56;;;;;;;4.00;2.70;;;12.30;99.90;;;;;;5073979;28;20182;-84
2023/10/30 07:21:23;;;;;;;6.97;4.47;;;12.30;99.90;;;;;;5075168;28;20224;-84
2023/10/30 07:23:48;;;;;;;11.37;8.10;;;12.30;99.90;;;;;;5075336;28;20179;-85
2023/10/30 07:26:15;;;;;;;10.47;6.40;;;12.30;99.90;;;;;;5074849;28;20227;-86
2023/10/30 07:28:40;;;;;;;5.27;4.60;;;12.40;99.90;;;;;;5075883;28;20178;-84
2023/10/30 07:31:06;;;;;;;7.07;4.10;;;12.50;99.90;;;;;;5075287;28;20175;-84
2023/10/30 07:33:32;;;;;;;8.97;5.07;;;12.50;99.90;;;;;;5075595;28;20207;-85
2023/10/30 07:36:01;;;;;;;6.83;4.93;;;12.50;99.90;;;;;;5076007;28;20178;-85
2023/10/30 07:38:27;;;;;;;7.17;5.03;;;12.50;99.90;;;;;;5078126;28;20191;-83
2023/10/30 07:40:54;;;;;;;6.73;4.33;;;12.50;99.90;;;;;;5084499;28;20221;-83
2023/10/30 07:43:21;;;;;;;8.63;5.03;;;12.40;99.90;;;;;;5083682;28;20199;-81
2023/10/30 07:45:50;;;;;;;4.70;4.00;;;12.10;99.90;;;;;;5079781;28;20171;-85
2023/10/30 07:48:16;;;;;;;5.43;3.73;;;12.40;99.90;;;;;;5079637;28;20186;-82
2023/10/30 07:50:43;;;;;;;5.37;3.70;;;12.40;99.90;;;;;;5094657;28;20268;-85
2023/10/30 07:53:08;;;;;;;4.13;3.67;;;12.40;99.90;;;;;;5093235;28;20213;-79
2023/10/30 07:55:36;;;;;;;5.63;3.60;;;12.30;99.90;;;;;;5091243;28;20223;-85
2023/10/30 07:58:05;;;;;;;3.30;3.00;;;12.40;99.90;;;;;;5087358;28;20179;-79
2023/10/30 08:00:31;;;;;;;7.30;3.20;;;12.40;99.90;;;;;;5085467;28;20234;-85
2023/10/30 08:02:57;;;;;;;6.10;3.27;;;12.40;99.90;;;;;;5077079;28;20174;-84
2023/10/30 08:05:23;;;;;;;4.90;3.23;;;12.40;99.90;;;;;;5076956;28;20171;-84
2023/10/30 08:07:48;;;;;;;3.70;2.83;;;12.40;99.90;;;;;;5076596;28;20198;-85
2023/10/30 08:10:14;;;;;;;5.10;2.70;;;12.30;99.90;;;;;;5075493;28;20251;-83
2023/10/30 08:12:40;;;;;;;3.60;3.30;;;12.40;99.90;;;;;;5075476;28;20203;-85
2023/10/30 08:15:09;;;;;;;3.23;2.93;;;12.40;99.90;;;;;;5078954;28;20179;-86
2023/10/30 08:17:36;;;;;;;4.73;2.87;;;12.40;99.90;;;;;;5081981;28;20172;-83
2023/10/30 08:20:03;;;;;;;7.93;3.53;;;12.50;99.90;;;;;;5091285;28;20181;-79
2023/10/30 08:22:30;;;;;;;3.50;3.00;;;12.60;99.90;;;;;;5082062;28;20171;-86
2023/10/30 08:24:56;;;;;;;4.13;3.30;;;12.70;99.90;;;;;;5079472;28;20186;-85
2023/10/30 08:27:22;;;;;;;3.70;3.40;;;12.70;99.90;;;;;;5076839;28;20211;-83
2023/10/30 08:29:47;;;;;;;7.13;3.57;;;12.80;99.90;;;;;;5080145;28;20183;-84
2023/10/30 08:32:13;;;;;;;9.27;4.03;;;12.90;99.90;;;;;;5079812;28;20235;-79
2023/10/30 08:34:39;;;;;;;6.47;3.20;;;12.90;99.90;;;;;;5078732;28;20182;-84
2023/10/30 08:37:05;;;;;;;4.30;3.40;;;13.00;99.90;;;;;;5066867;28;20276;-81
2023/10/30 08:39:31;;;;;;;9.93;3.50;;;13.10;99.90;;;;;;5080105;28;20252;-85
2023/10/30 08:41:57;;;;;;;7.30;3.63;;;13.30;99.90;;;;;;5080886;28;20175;-85
2023/10/30 08:44:22;;;;;;;7.83;3.33;;;13.10;99.90;;;;;;5080785;28;20200;-85
2023/10/30 08:46:48;;;;;;;3.60;3.30;;;13.10;99.90;;;;;;5080848;28;20626;-84
2023/10/30 08:49:14;;;;;;;3.40;2.80;;;13.20;99.90;;;;;;5079519;28;20245;-86
2023/10/30 08:51:43;;;;;;;4.33;2.90;;;13.30;99.90;;;;;;5081899;28;20186;-85
2023/10/30 08:54:09;;;;;;;5.00;3.43;;;13.30;99.90;;;;;;5080487;28;20186;-84
2023/10/30 08:56:39;;;;;;;3.57;3.27;;;13.20;99.90;;;;;;5097964;28;20206;-84
2023/10/30 08:59:08;;;;;;;7.23;3.20;;;13.20;99.90;;;;;;5079739;28;20161;-85
2023/10/30 09:01:34;;;;;;;5.97;3.40;;;13.60;99.90;;;;;;5079839;28;20172;-85
2023/10/30 09:04:02;;;;;;;7.27;3.43;;;13.20;99.90;;;;;;5078408;28;20178;-83
2023/10/30 09:06:28;;;;;;;4.90;3.27;;;13.40;99.90;;;;;;5082521;28;20197;-86
2023/10/30 09:08:54;;;;;;;5.17;3.40;;;13.60;99.90;;;;;;5095298;28;20218;-85
2023/10/30 09:11:21;;;;;;;7.07;3.30;;;13.70;99.90;;;;;;5083151;28;20191;-86
2023/10/30 09:13:47;;;;;;;8.27;3.40;;;13.80;99.90;;;;;;5079255;28;20538;-84
2023/10/30 09:16:13;;;;;;;14.20;4.17;;;14.00;99.90;;;;;;5079560;28;20174;-85
2023/10/30 09:18:39;;;;;;;4.97;3.30;;;14.10;99.90;;;;;;5086786;28;20175;-85
2023/10/30 09:21:05;;;;;;;15.20;5.73;;;14.30;99.90;;;;;;5097469;28;20179;-85
2023/10/30 09:23:30;;;;;;;14.50;5.50;;;14.30;99.90;;;;;;5095718;28;20243;-83
2023/10/30 09:25:56;;;;;;;5.80;3.70;;;14.50;99.90;;;;;;5078257;28;20238;-85
2023/10/30 09:28:22;;;;;;;6.37;3.17;;;14.60;99.90;;;;;;5076721;28;20181;-83
2023/10/30 09:30:49;;;;;;;4.40;3.03;;;14.60;99.90;;;;;;5078433;28;20215;-81
2023/10/30 09:33:15;;;;;;;2.87;2.60;;;14.70;99.90;;;;;;5077928;28;20214;-82
2023/10/30 09:35:42;;;;;;;6.00;3.23;;;14.80;99.90;;;;;;5077804;28;20205;-87
2023/10/30 09:38:08;;;;;;;3.17;2.90;;;14.70;99.90;;;;;;5078713;28;20183;-85
2023/10/30 09:40:34;;;;;;;5.37;2.90;;;14.70;99.90;;;;;;5078054;28;20175;-83
2023/10/30 09:43:01;;;;;;;3.90;2.87;;;14.70;99.90;;;;;;5078767;28;20179;-85
2023/10/30 09:45:28;;;;;;;4.00;3.00;;;14.60;99.90;;;;;;5078557;28;20530;-81
2023/10/30 09:47:55;;;;;;;3.43;2.63;;;14.60;99.90;;;;;;5078208;28;20568;-84
2023/10/30 09:50:22;;;;;;;3.27;2.97;;;14.60;99.90;;;;;;5080086;28;20262;-83
2023/10/30 09:52:51;;;;;;;4.03;3.33;;;14.60;99.90;;;;;;5093580;28;20225;-80
2023/10/30 09:55:23;;;;;;;2.80;2.60;;;14.60;99.90;;;;;;5083044;28;20175;-85
2023/10/30 09:57:51;;;;;;;6.37;3.00;;;14.80;99.90;;;;;;5081915;28;20174;-84
2023/10/30 10:00:18;;;;;;;5.03;3.93;;;14.90;99.90;;;;;;5082070;28;20159;-85
2023/10/30 10:02:44;;;;;;;4.23;3.33;;;15.10;99.90;;;;;;5081827;28;20642;-82
2023/10/30 10:05:12;;;;;;;9.50;3.53;;;15.20;99.90;;;;;;5082389;28;20199;-86
2023/10/30 10:07:38;;;;;;;6.67;3.03;;;15.30;99.90;;;;;;5082968;28;20200;-85
2023/10/30 10:10:06;;;;;;;5.27;3.80;;;15.40;99.90;;;;;;5083262;28;20171;-85
2023/10/30 10:12:36;;;;;;;8.50;3.87;;;15.50;99.90;;;;;;5082317;28;20294;-86
2023/10/30 10:15:06;;;;;;;7.20;2.97;;;15.60;99.90;;;;;;5082183;28;20178;-85
2023/10/30 10:17:42;;;;;;;5.00;3.87;;;15.70;99.90;;;;;;5078651;28;20213;-79
2023/10/30 10:20:10;;;;;;;7.27;3.70;;;15.60;99.90;;;;;;5079583;28;20207;-84
2023/10/30 10:22:36;;;;;;;4.03;3.63;;;15.70;99.90;;;;;;5096189;28;20177;-81
2023/10/30 10:25:02;;;;;;;10.30;4.20;;;15.90;99.90;;;;;;5097585;28;20160;-80
2023/10/30 10:27:28;;;;;;;4.97;4.03;;;15.80;99.90;;;;;;5092129;28;20163;-86
2023/10/30 10:29:55;;;;;;;6.83;3.87;;;15.80;99.90;;;;;;5088240;28;20738;-84
2023/10/30 10:32:27;;;;;;;7.40;3.50;;;15.70;99.90;;;;;;5079599;28;20281;-81
2023/10/30 10:34:57;;;;;;;4.23;3.30;;;15.80;99.90;;;;;;5076071;28;20657;-85
2023/10/30 10:37:23;;;;;;;7.70;3.80;;;15.90;99.90;;;;;;5075837;28;20696;-84
2023/10/30 10:39:53;;;;;;;4.90;3.43;;;16.00;99.90;;;;;;5076127;28;20174;-86
2023/10/30 10:42:23;;;;;;;4.93;3.97;;;16.10;99.90;;;;;;5077753;28;20175;-83
2023/10/30 10:44:54;;;;;;;4.67;3.70;;;16.10;99.90;;;;;;5076283;28;20167;-76
2023/10/30 10:47:22;;;;;;;3.70;3.10;;;16.10;99.90;;;;;;5075167;28;20647;-86
2023/10/30 10:49:48;;;;;;;6.13;3.83;;;16.20;99.90;;;;;;5077366;28;20177;-87
2023/10/30 10:52:19;;;;;;;7.00;3.57;;;16.20;99.90;;;;;;5084589;28;20206;-86
2023/10/30 10:54:54;;;;;;;5.70;3.50;;;16.20;99.90;;;;;;5095488;28;20169;-85
2023/10/30 10:57:21;;;;;;;4.63;4.13;;;16.20;99.90;;;;;;5076822;28;20159;-84
2023/10/30 10:59:53;;;;;;;6.23;3.90;;;16.20;99.90;;;;;;5076827;28;20171;-85
2023/10/30 11:02:26;;;;;;;7.83;3.83;;;16.20;99.90;;;;;;5076563;28;20163;-84
2023/10/30 11:04:53;;;;;;;7.40;4.43;;;16.10;99.90;;;;;;5075425;28;20159;-86
2023/10/30 11:07:27;;;;;;;9.33;4.03;;;16.10;99.90;;;;;;5074695;28;20307;-85
2023/10/30 11:09:57;;;;;;;4.53;3.50;;;17.10;99.90;;;;;;5076432;28;20572;-86
2023/10/30 11:13:05;;;;;;;6.40;3.37;;;16.10;99.90;;;;;;5076960;28;20244;-86
2023/10/30 11:15:34;;;;;;;5.30;3.80;;;16.10;99.90;;;;;;5076357;28;20166;-86
2023/10/30 11:18:14;;;;;;;6.40;3.60;;;16.10;99.90;;;;;;5076847;28;20179;-84
2023/10/30 11:20:44;;;;;;;5.47;3.80;;;16.20;99.90;;;;;;5077148;28;20261;-85
2023/10/30 11:23:12;;;;;;;3.43;2.90;;;16.20;99.90;;;;;;5076514;28;20174;-85
2023/10/30 11:25:54;;;;;;;3.43;3.13;;;16.30;99.90;;;;;;5087746;28;20279;-82
2023/10/30 11:28:23;;;;;;;4.37;2.47;;;16.40;99.90;;;;;;5082601;28;20198;-81
2023/10/30 11:30:50;;;;;;;3.33;3.03;;;16.50;99.90;;;;;;5076308;28;20190;-85
2023/10/30 11:33:26;;;;;;;5.33;3.60;;;16.70;99.90;;;;;;5075854;28;20203;-85
2023/10/30 11:36:14;;;;;;;6.67;3.93;;;16.50;99.90;;;;;;5075773;28;20150;-87
2023/10/30 11:38:52;;;;;;;4.17;3.77;;;16.50;99.90;;;;;;5075823;28;20179;-85
2023/10/30 11:41:18;;;;;;;5.37;3.43;;;16.40;99.90;;;;;;5076002;28;20163;-87
2023/10/30 11:43:48;;;;;;;10.77;3.87;;;17.00;99.90;;;;;;5077015;28;20174;-84
2023/10/30 11:46:16;;;;;;;4.87;3.57;;;16.40;99.90;;;;;;5077202;28;20246;-83
2023/10/30 11:48:42;;;;;;;3.73;3.43;;;16.40;99.90;;;;;;5093301;28;20180;-84
2023/10/30 11:51:12;;;;;;;5.43;3.83;;;16.50;99.90;;;;;;5097508;28;20167;-84
2023/10/30 11:53:42;;;;;;;5.80;3.43;;;16.50;99.90;;;;;;5085154;28;20246;-85
2023/10/30 11:56:09;;;;;;;5.73;4.00;;;16.50;99.90;;;;;;5079251;28;20171;-86
2023/10/30 11:58:37;;;;;;;6.43;3.93;;;16.60;99.90;;;;;;5076393;28;20178;-77
2023/10/30 12:01:05;;;;;;;3.93;2.87;;;16.60;99.90;;;;;;5077098;28;20167;-79
2023/10/30 12:03:32;;;;;;;5.53;3.50;;;16.60;99.90;;;;;;5077742;28;20214;-84
2023/10/30 12:05:58;;;;;;;9.30;3.37;;;16.80;99.90;;;;;;5078878;28;20599;-84
2023/10/30 12:08:23;;;;;;;5.77;3.60;;;16.70;99.90;;;;;;5080048;28;20213;-78
2023/10/30 12:10:49;;;;;;;6.37;3.20;;;16.80;99.90;;;;;;5083898;28;20649;-83
2023/10/30 12:13:15;;;;;;;6.43;3.20;;;16.80;99.90;;;;;;5081573;28;20861;-81
2023/10/30 12:15:45;;;;;;;3.80;3.13;;;16.90;99.90;;;;;;5082598;28;20257;-80
2023/10/30 12:18:10;;;;;;;7.10;3.70;;;17.10;99.90;;;;;;5079405;28;20216;-82
2023/10/30 12:20:36;;;;;;;3.60;3.13;;;17.20;99.90;;;;;;5079191;28;20314;-81
2023/10/30 12:23:02;;;;;;;6.07;3.20;;;17.30;99.90;;;;;;5080438;28;20210;-87
2023/10/30 12:25:28;;;;;;;3.87;2.80;;;17.30;99.90;;;;;;5081467;28;20206;-85
2023/10/30 12:28:06;;;;;;;3.70;3.33;;;17.30;99.90;;;;;;5078732;28;20155;-78
2023/10/30 12:30:38;;;;;;;5.00;3.37;;;17.90;99.90;;;;;;5078394;28;20158;-75
2023/10/30 12:33:04;;;;;;;5.70;3.33;;;17.40;99.90;;;;;;5077734;28;20198;-78
2023/10/30 12:35:30;;;;;;;10.70;4.53;;;17.40;99.90;;;;;;5080117;28;20178;-80
2023/10/30 12:37:56;;;;;;;7.73;4.00;;;17.40;99.90;;;;;;5080328;28;20230;-82
2023/10/30 12:40:21;;;;;;;7.33;3.97;;;17.40;99.90;;;;;;5081245;28;20186;-78
2023/10/30 12:42:48;;;;;;;7.10;3.77;;;17.40;99.90;;;;;;5078692;28;20171;-78
2023/10/30 12:45:18;;;;;;;6.77;3.63;;;17.40;99.90;;;;;;5080053;28;20198;-81